Time;durP1;ratioP1;P1;durP2;ratioP2;P2;SDS_P1;SDS_P2;PMS_P1;PMS_P2;Temp;Humidity;BMP_temperature;BMP_pressure;BME280_temperature;BME280_humidity;BME280_pressure;Samples;Min_cycle;Max_cycle;Signal;HPM_P1;HPM_P2
2021/04/13 06:08:12;;;;;;;2.97;2.25;;;;;;;;;;5077651;28;20386;-64
2021/04/13 06:10:38;;;;;;;2.80;2.50;;;;;;;;;;5085058;28;20034;-64
2021/04/13 06:13:04;;;;;;;4.70;2.55;;;;;;;;;;5080292;28;20017;-63
2021/04/13 06:15:30;;;;;;;3.13;2.50;;;;;;;;;;5077531;28;20656;-63
2021/04/13 06:17:56;;;;;;;3.38;2.50;;;;;;;;;;5092811;28;20013;-63
2021/04/13 06:20:22;;;;;;;15.88;3.65;;;;;;;;;;5072382;28;20035;-64
2021/04/13 06:22:48;;;;;;;17.73;2.60;;;;;;;;;;5072659;28;20481;-67
2021/04/13 06:25:13;;;;;;;11.82;2.60;;;;;;;;;;5075697;28;20029;-64
2021/04/13 06:27:39;;;;;;;2.80;2.35;;;;;;;;;;5101296;28;20032;-65
2021/04/13 06:30:05;;;;;;;4.63;2.58;;;;;;;;;;5067338;28;20017;-64
2021/04/13 06:32:31;;;;;;;3.85;2.10;;;;;;;;;;5066694;28;20028;-65
2021/04/13 06:34:56;;;;;;;3.55;2.10;;;;;;;;;;5097690;28;20032;-65
2021/04/13 06:37:22;;;;;;;2.20;1.95;;;;;;;;;;5048514;28;20013;-66
2021/04/13 06:39:48;;;;;;;4.32;2.70;;;;;;;;;;5067262;28;20478;-66
2021/04/13 06:42:14;;;;;;;2.55;2.05;;;;;;;;;;5055963;28;20124;-64
2021/04/13 06:44:49;;;;;;;8.60;2.28;;;;;;;;;;5045636;28;20013;-64
2021/04/13 06:47:15;;;;;;;8.45;2.28;;;;;;;;;;5061957;28;20032;-64
2021/04/13 06:49:40;;;;;;;3.03;2.22;;;;;;;;;;5061143;28;20493;-64
2021/04/13 06:52:06;;;;;;;3.92;2.72;;;;;;;;;;5067602;28;20028;-62
2021/04/13 06:54:39;;;;;;;3.17;2.40;;;;;;;;;;5048915;28;20035;-63
2021/04/13 06:57:14;;;;;;;13.88;2.60;;;;;;;;;;5083954;28;20024;-63
2021/04/13 06:59:48;;;;;;;3.35;2.15;;;;;;;;;;5061238;28;20012;-63
2021/04/13 07:02:17;;;;;;;3.53;2.40;;;;;;;;;;5052364;28;20021;-62
2021/04/13 07:04:43;;;;;;;7.40;2.67;;;;;;;;;;5064046;28;20024;-64
2021/04/13 07:07:18;;;;;;;2.72;2.33;;;;;;;;;;5066430;28;20049;-62
2021/04/13 07:09:55;;;;;;;3.47;2.83;;;;;;;;;;5065617;28;20029;-63
2021/04/13 07:12:25;;;;;;;2.58;2.33;;;;;;;;;;5065790;28;20365;-63
2021/04/13 07:14:59;;;;;;;2.92;2.28;;;;;;;;;;5053986;28;20484;-63
2021/04/13 07:17:24;;;;;;;21.25;2.65;;;;;;;;;;5091803;28;20043;-63
2021/04/13 07:19:54;;;;;;;5.95;2.60;;;;;;;;;;5079410;28;20096;-62
2021/04/13 07:22:23;;;;;;;5.70;2.30;;;;;;;;;;5051073;28;20419;-62
2021/04/13 07:24:50;;;;;;;3.33;2.38;;;;;;;;;;5049252;28;20020;-63
2021/04/13 07:27:17;;;;;;;4.72;2.90;;;;;;;;;;5052467;28;20335;-63
2021/04/13 07:29:44;;;;;;;5.90;2.50;;;;;;;;;;5053356;28;20033;-63
2021/04/13 07:32:12;;;;;;;6.57;2.60;;;;;;;;;;5050293;28;20017;-64
2021/04/13 07:34:39;;;;;;;4.07;2.55;;;;;;;;;;5051990;28;20021;-64
2021/04/13 07:37:11;;;;;;;3.42;2.35;;;;;;;;;;5051578;28;20021;-63
2021/04/13 07:39:39;;;;;;;4.20;2.78;;;;;;;;;;5053068;28;20013;-63
2021/04/13 07:42:08;;;;;;;4.63;3.03;;;;;;;;;;5051891;28;20033;-62
2021/04/13 07:44:43;;;;;;;4.88;3.25;;;;;;;;;;5052774;28;20024;-64
2021/04/13 07:47:08;;;;;;;3.60;2.55;;;;;;;;;;5051293;28;20036;-63
2021/04/13 07:49:38;;;;;;;3.95;3.20;;;;;;;;;;5044473;28;20462;-63
2021/04/13 07:52:13;;;;;;;3.65;2.60;;;;;;;;;;5052668;28;20028;-64
2021/04/13 07:54:48;;;;;;;2.90;2.50;;;;;;;;;;5052810;28;20017;-63
2021/04/13 07:57:23;;;;;;;5.75;3.10;;;;;;;;;;5048760;28;20060;-64
2021/04/13 07:59:58;;;;;;;5.28;3.20;;;;;;;;;;5047941;28;20034;-64
2021/04/13 08:02:23;;;;;;;5.72;2.95;;;;;;;;;;5048586;28;20028;-65
2021/04/13 08:04:49;;;;;;;3.70;3.15;;;;;;;;;;5053024;28;20047;-63
2021/04/13 08:07:17;;;;;;;6.28;3.10;;;;;;;;;;5038933;28;20052;-63
2021/04/13 08:09:47;;;;;;;15.80;4.30;;;;;;;;;;5051577;28;20513;-66
2021/04/13 08:12:23;;;;;;;5.70;3.20;;;;;;;;;;5050274;28;20049;-66
2021/04/13 08:15:03;;;;;;;7.43;3.10;;;;;;;;;;5051058;28;20013;-66
2021/04/13 08:17:31;;;;;;;3.70;2.95;;;;;;;;;;5054700;28;20052;-67
2021/04/13 08:19:59;;;;;;;9.70;3.30;;;;;;;;;;5055786;28;20024;-69
2021/04/13 08:22:25;;;;;;;7.68;2.95;;;;;;;;;;5049154;28;20017;-69
2021/04/13 08:24:52;;;;;;;5.85;2.85;;;;;;;;;;5043138;28;20312;-64
2021/04/13 08:27:18;;;;;;;4.85;3.65;;;;;;;;;;5043746;28;20033;-66
2021/04/13 08:29:45;;;;;;;4.75;3.25;;;;;;;;;;5045916;28;20025;-67
2021/04/13 08:34:56;;;;;;;4.93;3.22;;;;;;;;;;5042757;28;20063;-65
2021/04/13 08:37:21;;;;;;;7.43;3.85;;;;;;;;;;5072443;28;20025;-66
2021/04/13 08:39:48;;;;;;;7.20;3.85;;;;;;;;;;5034775;28;20124;-71
2021/04/13 08:42:16;;;;;;;4.68;3.65;;;;;;;;;;5038942;28;20033;-72
2021/04/13 08:44:48;;;;;;;8.97;4.70;;;;;;;;;;5046913;28;20018;-69
2021/04/13 08:47:23;;;;;;;5.32;3.70;;;;;;;;;;5032754;28;20043;-70
2021/04/13 08:49:53;;;;;;;8.73;3.67;;;;;;;;;;5048248;28;20013;-71
2021/04/13 08:52:28;;;;;;;6.45;3.50;;;;;;;;;;5032238;28;20127;-71
2021/04/13 08:55:03;;;;;;;4.85;3.33;;;;;;;;;;5050892;28;20025;-70
2021/04/13 08:57:32;;;;;;;5.72;4.13;;;;;;;;;;5045000;28;20017;-74
2021/04/13 08:59:59;;;;;;;6.47;4.05;;;;;;;;;;5051150;28;20025;-72
2021/04/13 09:02:24;;;;;;;7.38;3.80;;;;;;;;;;5051456;28;20017;-73
2021/04/13 09:05:00;;;;;;;9.02;3.53;;;;;;;;;;5050266;28;20355;-72
2021/04/13 09:07:28;;;;;;;5.60;3.58;;;;;;;;;;5084992;28;20045;-73
2021/04/13 09:09:57;;;;;;;6.18;3.50;;;;;;;;;;5035107;28;20040;-72
2021/04/13 09:12:23;;;;;;;;;;;;;;;;;;5041363;28;20013;-69
2021/04/13 09:14:58;;;;;;;4.77;3.30;;;;;;;;;;5050255;28;20366;-72
2021/04/13 09:17:26;;;;;;;6.28;3.08;;;;;;;;;;5033409;28;20452;-71
2021/04/13 09:20:01;;;;;;;5.43;3.15;;;;;;;;;;5049908;28;20021;-70
2021/04/13 09:22:28;;;;;;;7.00;3.40;;;;;;;;;;5051583;28;20473;-71
2021/04/13 09:25:05;;;;;;;7.70;3.28;;;;;;;;;;5046514;28;20029;-74
2021/04/13 09:27:31;;;;;;;3.53;2.72;;;;;;;;;;5048873;28;20033;-72
2021/04/13 09:30:00;;;;;;;5.40;2.80;;;;;;;;;;5055259;28;20046;-74
2021/04/13 09:32:26;;;;;;;6.63;3.33;;;;;;;;;;5057661;28;20039;-72
2021/04/13 09:35:06;;;;;;;5.75;3.10;;;;;;;;;;5049499;28;20036;-68
2021/04/13 09:37:41;;;;;;;6.90;3.10;;;;;;;;;;5027914;28;20053;-69
2021/04/13 10:34:10;;;;;;;4.07;3.55;;;;;;;;;;5081580;27;20912;-67
2021/04/13 10:36:36;;;;;;;5.13;3.67;;;;;;;;;;5077412;28;20472;-68
2021/04/13 10:39:02;;;;;;;4.43;3.60;;;;;;;;;;5076207;28;20108;-68
2021/04/13 10:41:29;;;;;;;6.30;4.03;;;;;;;;;;5069065;28;20033;-67
2021/04/13 10:44:04;;;;;;;5.40;3.80;;;;;;;;;;5058967;28;20031;-67
2021/04/13 10:46:38;;;;;;;5.05;3.40;;;;;;;;;;5062137;28;20474;-67
2021/04/13 10:49:04;;;;;;;10.85;3.90;;;;;;;;;;5063144;28;20068;-68
2021/04/13 10:51:47;;;;;;;6.18;4.30;;;;;;;;;;5062828;28;20027;-68
2021/04/13 10:54:13;;;;;;;6.35;4.05;;;;;;;;;;5063218;28;20021;-66
2021/04/13 10:56:39;;;;;;;5.65;4.20;;;;;;;;;;5070832;28;20024;-68
2021/04/13 10:59:14;;;;;;;5.72;3.92;;;;;;;;;;5071546;28;20132;-67
2021/04/13 11:01:49;;;;;;;6.05;3.35;;;;;;;;;;5070438;28;20031;-67
2021/04/13 11:04:24;;;;;;;6.32;4.28;;;;;;;;;;5080425;28;20025;-67
2021/04/13 11:07:05;;;;;;;4.60;3.53;;;;;;;;;;5068772;28;20029;-67
2021/04/13 11:09:41;;;;;;;5.10;3.67;;;;;;;;;;5074001;28;20171;-68
2021/04/13 11:12:26;;;;;;;4.95;3.80;;;;;;;;;;5082967;28;20488;-69
2021/04/13 11:15:03;;;;;;;7.90;4.15;;;;;;;;;;5078648;28;20020;-67
2021/04/13 11:17:40;;;;;;;5.78;3.95;;;;;;;;;;5083446;28;20031;-65
2021/04/13 11:20:15;;;;;;;8.10;4.57;;;;;;;;;;5074045;28;20107;-65
2021/04/13 11:22:43;;;;;;;6.10;4.30;;;;;;;;;;5078857;28;20012;-64
2021/04/13 11:25:18;;;;;;;13.67;4.40;;;;;;;;;;5068885;28;20054;-67
2021/04/13 11:27:46;;;;;;;10.68;4.97;;;;;;;;;;5079506;28;20021;-67
2021/04/13 11:30:22;;;;;;;8.80;4.67;;;;;;;;;;5063742;28;20024;-66
2021/04/13 11:33:05;;;;;;;9.48;4.65;;;;;;;;;;5084263;28;20044;-66
2021/04/13 11:35:40;;;;;;;9.95;4.60;;;;;;;;;;5075799;28;20056;-68
2021/04/13 11:38:10;;;;;;;8.45;4.93;;;;;;;;;;5071989;28;20025;-66
2021/04/13 11:40:38;;;;;;;6.60;4.57;;;;;;;;;;5065088;28;20029;-66
2021/04/13 11:43:04;;;;;;;5.63;4.78;;;;;;;;;;5058450;28;20539;-65
2021/04/13 11:45:40;;;;;;;11.15;5.47;;;;;;;;;;5046534;28;20024;-68
2021/04/13 11:48:05;;;;;;;7.93;5.70;;;;;;;;;;5044576;28;20100;-68
2021/04/13 11:50:40;;;;;;;8.70;6.00;;;;;;;;;;5044175;28;20464;-71
2021/04/13 11:53:09;;;;;;;8.70;5.55;;;;;;;;;;5063854;28;20024;-69
2021/04/13 11:55:44;;;;;;;14.20;6.10;;;;;;;;;;5063390;28;20027;-70
2021/04/13 11:58:13;;;;;;;9.48;6.38;;;;;;;;;;5045690;28;20082;-68
2021/04/13 12:00:38;;;;;;;10.95;5.10;;;;;;;;;;5052515;28;20381;-67
2021/04/13 12:03:07;;;;;;;8.57;6.22;;;;;;;;;;5048449;28;20017;-65
2021/04/13 12:05:32;;;;;;;10.10;6.70;;;;;;;;;;5051772;28;20024;-65
2021/04/13 12:07:59;;;;;;;8.18;5.90;;;;;;;;;;5044290;28;20017;-65
2021/04/13 12:10:34;;;;;;;13.10;7.05;;;;;;;;;;5063507;28;20020;-64
2021/04/13 12:13:00;;;;;;;10.25;6.80;;;;;;;;;;5058342;28;20033;-65
2021/04/13 12:15:26;;;;;;;10.98;7.53;;;;;;;;;;5067624;28;20469;-66
2021/04/13 12:17:54;;;;;;;11.90;7.65;;;;;;;;;;5058108;28;20104;-65
2021/04/13 12:22:55;;;;;;;14.00;8.18;;;;;;;;;;5066662;28;20362;-65
2021/04/13 12:25:30;;;;;;;13.45;8.27;;;;;;;;;;5056767;28;20052;-65
2021/04/13 12:28:05;;;;;;;16.08;8.18;;;;;;;;;;5066081;28;20021;-65
2021/04/13 12:30:32;;;;;;;13.38;9.38;;;;;;;;;;5062693;28;20473;-65
2021/04/13 12:32:58;;;;;;;11.70;8.93;;;;;;;;;;5056504;28;20056;-64
2021/04/13 12:35:33;;;;;;;15.32;9.27;;;;;;;;;;5067773;28;20025;-65
2021/04/13 12:37:58;;;;;;;15.68;9.88;;;;;;;;;;5057647;28;20016;-65
2021/04/13 12:40:25;;;;;;;11.07;7.18;;;;;;;;;;5049320;28;20032;-67
2021/04/13 12:42:52;;;;;;;17.05;10.25;;;;;;;;;;5053619;28;20021;-67
2021/04/13 12:45:18;;;;;;;16.58;9.82;;;;;;;;;;5033167;28;20425;-75
2021/04/13 12:47:45;;;;;;;15.25;9.50;;;;;;;;;;5056925;28;20358;-71
2021/04/13 12:50:13;;;;;;;15.13;11.00;;;;;;;;;;5058388;28;20117;-74
2021/04/13 12:52:39;;;;;;;12.35;9.45;;;;;;;;;;5059270;28;20501;-74
2021/04/13 12:55:14;;;;;;;14.98;10.73;;;;;;;;;;5057445;28;20025;-69
2021/04/13 12:57:49;;;;;;;16.63;11.25;;;;;;;;;;5068617;28;20024;-71
2021/04/13 13:00:14;;;;;;;13.23;9.90;;;;;;;;;;5072219;28;20146;-70
2021/04/13 13:02:43;;;;;;;16.48;11.38;;;;;;;;;;5055161;28;20108;-71
2021/04/13 13:05:18;;;;;;;20.07;12.30;;;;;;;;;;5031736;28;20740;-72
2021/04/13 13:07:50;;;;;;;20.17;13.77;;;;;;;;;;5061055;28;20250;-72
2021/04/13 13:10:15;;;;;;;18.92;13.00;;;;;;;;;;5056162;28;20480;-62
2021/04/13 13:12:41;;;;;;;19.60;13.25;;;;;;;;;;5056481;28;20044;-63
2021/04/13 13:15:08;;;;;;;23.85;14.18;;;;;;;;;;5065086;28;20028;-64
2021/04/13 13:17:38;;;;;;;24.27;13.25;;;;;;;;;;5050482;28;20029;-68
2021/04/13 13:20:04;;;;;;;26.88;15.27;;;;;;;;;;5051735;28;20074;-66
2021/04/13 13:22:31;;;;;;;17.70;12.00;;;;;;;;;;5059584;28;20029;-64
2021/04/13 13:25:10;;;;;;;17.35;12.73;;;;;;;;;;5065725;28;20024;-68
2021/04/13 13:27:35;;;;;;;18.65;13.52;;;;;;;;;;5051225;28;20104;-73
2021/04/13 13:30:08;;;;;;;18.67;13.65;;;;;;;;;;5059749;28;20104;-69
2021/04/13 13:32:35;;;;;;;22.42;13.68;;;;;;;;;;5067592;28;20167;-70
2021/04/13 13:35:01;;;;;;;21.15;14.88;;;;;;;;;;5065954;28;20477;-71
2021/04/13 13:37:36;;;;;;;19.67;13.93;;;;;;;;;;5040593;28;20025;-71
2021/04/13 13:40:02;;;;;;;21.75;14.82;;;;;;;;;;5042609;28;20051;-72
2021/04/13 13:42:28;;;;;;;24.50;16.15;;;;;;;;;;5049628;28;20055;-73
2021/04/13 13:44:54;;;;;;;21.73;16.02;;;;;;;;;;5022424;28;20025;-73
2021/04/13 13:47:20;;;;;;;125.28;20.10;;;;;;;;;;5045915;28;20031;-70
2021/04/13 13:49:46;;;;;;;71.97;18.50;;;;;;;;;;5045324;28;20021;-65
2021/04/13 13:52:13;;;;;;;19.92;13.80;;;;;;;;;;5030767;28;20025;-66
2021/04/13 13:54:39;;;;;;;19.92;13.88;;;;;;;;;;5059635;28;20420;-67
2021/04/13 13:57:14;;;;;;;19.30;14.45;;;;;;;;;;5054339;28;20075;-66
2021/04/13 13:59:45;;;;;;;20.00;14.85;;;;;;;;;;5037922;28;20009;-65
2021/04/13 14:02:20;;;;;;;19.73;15.75;;;;;;;;;;5062669;28;20361;-64
2021/04/13 14:04:45;;;;;;;19.20;14.32;;;;;;;;;;5064267;28;20073;-65
2021/04/13 14:07:12;;;;;;;20.50;14.73;;;;;;;;;;5034396;28;20127;-65
2021/04/13 14:09:38;;;;;;;21.45;14.23;;;;;;;;;;5046451;28;20009;-65
2021/04/13 14:12:13;;;;;;;20.25;14.02;;;;;;;;;;5047189;28;20025;-65
2021/04/13 14:14:39;;;;;;;22.77;15.23;;;;;;;;;;5045048;28;20024;-65
2021/04/13 14:17:14;;;;;;;28.67;17.23;;;;;;;;;;5040362;28;20485;-67
2021/04/13 14:19:39;;;;;;;29.92;17.35;;;;;;;;;;5051017;28;20015;-66
2021/04/13 14:22:08;;;;;;;24.08;15.43;;;;;;;;;;5048000;28;20025;-65
2021/04/13 14:24:35;;;;;;;19.05;13.00;;;;;;;;;;5042927;28;20013;-68
